Time;durP1;ratioP1;P1;durP2;ratioP2;P2;SDS_P1;SDS_P2;PMS_P1;PMS_P2;Temp;Humidity;BMP_temperature;BMP_pressure;BME280_temperature;BME280_humidity;BME280_pressure;Samples;Min_cycle;Max_cycle;Signal;HPM_P1;HPM_P2
2022/09/22 00:01:37;;;;;;;14.87;9.37;;;8.00;99.90;;;;;;5067256;28;20196;-63
2022/09/22 00:04:08;;;;;;;14.73;8.93;;;7.90;99.90;;;;;;5060593;28;20216;-63
2022/09/22 00:06:38;;;;;;;15.00;9.70;;;7.90;99.90;;;;;;5061423;28;20196;-63
2022/09/22 00:09:09;;;;;;;14.77;9.87;;;7.90;99.90;;;;;;5066944;28;20303;-63
2022/09/22 00:11:39;;;;;;;13.40;9.20;;;7.90;99.90;;;;;;5074119;28;20189;-63
2022/09/22 00:14:11;;;;;;;10.80;9.20;;;7.90;99.90;;;;;;5064139;28;20192;-62
2022/09/22 00:16:41;;;;;;;12.53;8.53;;;7.80;99.90;;;;;;5062446;28;20211;-63
2022/09/22 00:19:13;;;;;;;12.23;9.40;;;7.90;99.90;;;;;;5066218;28;20184;-63
2022/09/22 00:21:41;;;;;;;13.53;10.03;;;7.90;99.90;;;;;;5063270;28;20203;-63
2022/09/22 00:24:09;;;;;;;14.43;9.70;;;7.90;99.90;;;;;;5065355;28;20227;-63
2022/09/22 00:26:39;;;;;;;11.43;9.33;;;7.90;99.90;;;;;;5062579;28;20200;-63
2022/09/22 00:29:10;;;;;;;15.73;10.10;;;7.80;99.90;;;;;;5072115;28;20196;-63
2022/09/22 00:31:39;;;;;;;16.10;10.13;;;7.80;99.90;;;;;;5061605;28;20203;-63
2022/09/22 00:34:13;;;;;;;15.30;9.80;;;7.80;99.90;;;;;;5066651;28;20196;-63
2022/09/22 00:36:41;;;;;;;14.43;9.53;;;7.70;99.90;;;;;;5060351;28;20204;-63
2022/09/22 00:39:10;;;;;;;12.60;9.43;;;7.70;99.90;;;;;;5066451;28;20250;-63
2022/09/22 00:41:44;;;;;;;12.80;9.73;;;7.70;99.90;;;;;;5064201;28;20203;-63
2022/09/22 00:44:37;;;;;;;12.13;9.17;;;7.60;99.90;;;;;;5066025;28;20665;-63
2022/09/22 00:47:17;;;;;;;14.10;9.33;;;7.60;99.90;;;;;;5064176;28;20196;-62
2022/09/22 00:49:51;;;;;;;12.70;9.23;;;7.60;99.90;;;;;;5054803;28;20196;-63
2022/09/22 00:52:23;;;;;;;15.83;9.37;;;7.60;99.90;;;;;;5062525;28;20697;-63
2022/09/22 00:54:55;;;;;;;15.07;10.57;;;7.60;99.90;;;;;;5061668;28;20580;-63
2022/09/22 00:57:26;;;;;;;11.83;9.37;;;7.60;99.90;;;;;;5061128;28;20199;-63
2022/09/22 00:59:56;;;;;;;12.83;9.53;;;7.50;99.90;;;;;;5051538;28;20235;-63
2022/09/22 01:02:24;;;;;;;14.50;9.20;;;7.50;99.90;;;;;;5067294;28;20194;-63
2022/09/22 01:04:56;;;;;;;17.80;9.43;;;7.50;99.90;;;;;;5063736;28;20705;-63
2022/09/22 01:07:28;;;;;;;9.13;8.00;;;7.50;99.90;;;;;;5062371;28;20208;-63
2022/09/22 01:09:57;;;;;;;10.23;8.53;;;7.40;99.90;;;;;;5067364;28;20200;-63
2022/09/22 01:12:27;;;;;;;10.83;8.60;;;7.40;99.90;;;;;;5061796;28;20211;-63
2022/09/22 01:15:12;;;;;;;14.07;9.87;;;7.40;99.90;;;;;;5075928;28;20197;-63
2022/09/22 01:17:53;;;;;;;12.50;8.83;;;7.30;99.90;;;;;;5061113;28;20560;-63
2022/09/22 01:21:06;;;;;;;11.77;9.07;;;7.30;99.90;;;;;;5092237;28;20215;-62
2022/09/22 01:24:07;;;;;;;17.57;9.20;;;7.30;99.90;;;;;;5062509;28;20196;-63
2022/09/22 01:26:58;;;;;;;10.80;8.63;;;7.30;99.90;;;;;;5043026;28;20211;-63
2022/09/22 01:30:05;;;;;;;13.63;9.23;;;7.30;99.90;;;;;;5059439;28;20543;-63
2022/09/22 01:32:44;;;;;;;15.63;9.10;;;7.20;99.90;;;;;;5058667;28;20226;-63
2022/09/22 01:35:19;;;;;;;13.67;8.93;;;7.20;99.90;;;;;;5063220;28;20195;-63
2022/09/22 01:37:59;;;;;;;16.50;9.33;;;7.20;99.90;;;;;;5060506;28;20223;-63
2022/09/22 01:40:34;;;;;;;12.37;8.90;;;7.20;99.90;;;;;;5062682;28;20412;-63
2022/09/22 01:43:13;;;;;;;12.37;9.20;;;7.10;99.90;;;;;;5066653;28;20196;-63
2022/09/22 01:45:47;;;;;;;13.83;9.13;;;7.20;99.90;;;;;;5061795;28;20620;-63
2022/09/22 01:48:20;;;;;;;10.90;8.20;;;7.20;99.90;;;;;;5062254;28;20201;-63
2022/09/22 01:50:54;;;;;;;11.93;8.83;;;7.10;99.90;;;;;;5057327;28;20200;-63
2022/09/22 01:53:26;;;;;;;9.70;8.60;;;7.10;99.90;;;;;;5060374;28;20188;-63
2022/09/22 01:56:00;;;;;;;10.80;9.47;;;7.10;99.90;;;;;;5059273;28;20228;-62
2022/09/22 01:58:32;;;;;;;15.97;9.77;;;7.10;99.90;;;;;;5060509;28;20591;-62
2022/09/22 02:01:06;;;;;;;14.17;9.30;;;7.00;99.90;;;;;;5068674;28;20280;-63
2022/09/22 02:03:46;;;;;;;11.97;9.30;;;7.00;99.90;;;;;;5067679;28;20192;-63
2022/09/22 02:06:19;;;;;;;10.83;8.67;;;7.00;99.90;;;;;;5070296;28;20599;-63
2022/09/22 02:08:53;;;;;;;13.83;8.87;;;6.90;99.90;;;;;;5068307;28;20196;-63
2022/09/22 02:11:22;;;;;;;13.07;8.80;;;6.90;99.90;;;;;;5100425;28;20195;-63
2022/09/22 02:13:51;;;;;;;14.03;9.63;;;6.90;99.90;;;;;;5071924;28;20570;-63
2022/09/22 02:16:22;;;;;;;10.63;9.00;;;6.90;99.90;;;;;;5071081;28;20204;-63
2022/09/22 02:18:54;;;;;;;11.63;9.27;;;6.90;99.90;;;;;;5068623;28;20196;-63
2022/09/22 02:21:26;;;;;;;12.00;9.20;;;6.80;99.90;;;;;;5065345;28;20192;-63
2022/09/22 02:23:55;;;;;;;16.83;9.60;;;6.80;99.90;;;;;;5063329;28;20203;-63
2022/09/22 02:26:30;;;;;;;14.03;9.40;;;6.80;99.90;;;;;;5068068;28;20312;-62
2022/09/22 02:29:02;;;;;;;15.30;9.13;;;6.80;99.90;;;;;;5067076;28;20195;-63
2022/09/22 02:31:34;;;;;;;17.27;9.50;;;6.80;99.90;;;;;;5071623;28;21200;-63
2022/09/22 02:34:05;;;;;;;11.83;9.00;;;6.80;99.90;;;;;;5060059;28;20234;-62
2022/09/22 02:36:50;;;;;;;12.93;9.00;;;6.70;99.90;;;;;;5063760;28;20203;-62
2022/09/22 02:39:25;;;;;;;12.37;9.30;;;6.70;99.90;;;;;;5068515;28;20200;-62
2022/09/22 02:42:10;;;;;;;10.97;9.20;;;6.70;99.90;;;;;;5072026;28;20187;-63
2022/09/22 02:44:46;;;;;;;11.83;8.97;;;6.70;99.90;;;;;;5067212;28;20674;-62
2022/09/22 02:47:19;;;;;;;13.97;9.17;;;6.70;99.90;;;;;;5066079;28;20217;-62
2022/09/22 02:49:51;;;;;;;13.90;9.03;;;6.70;99.90;;;;;;5069084;28;20349;-63
2022/09/22 02:52:23;;;;;;;9.67;8.63;;;6.70;99.90;;;;;;5070453;28;20675;-63
2022/09/22 02:54:53;;;;;;;9.73;8.67;;;6.60;99.90;;;;;;5065214;28;20654;-63
2022/09/22 02:57:22;;;;;;;12.83;8.90;;;6.70;99.90;;;;;;5068230;28;20196;-63
2022/09/22 02:59:50;;;;;;;13.83;8.47;;;6.60;99.90;;;;;;5066751;28;20223;-63
2022/09/22 03:02:18;;;;;;;16.63;8.97;;;6.60;99.90;;;;;;5064471;28;20200;-62
2022/09/22 03:04:50;;;;;;;11.97;8.43;;;6.60;99.90;;;;;;5064671;28;20212;-63
2022/09/22 03:07:18;;;;;;;12.50;8.27;;;6.50;99.90;;;;;;5067293;28;20249;-62
2022/09/22 03:09:47;;;;;;;10.57;8.27;;;6.50;99.90;;;;;;5056697;28;20207;-62
2022/09/22 03:12:15;;;;;;;12.70;8.53;;;6.50;99.90;;;;;;5065104;28;20197;-63
2022/09/22 03:14:44;;;;;;;10.77;8.37;;;6.50;99.90;;;;;;5056735;28;20193;-63
2022/09/22 03:17:12;;;;;;;11.63;8.53;;;6.50;99.90;;;;;;5065042;28;20195;-62
2022/09/22 03:19:41;;;;;;;10.80;9.00;;;6.50;99.90;;;;;;5078911;28;20204;-62
2022/09/22 03:22:10;;;;;;;12.43;8.17;;;6.50;99.90;;;;;;5065851;28;20197;-62
2022/09/22 03:24:41;;;;;;;12.43;8.47;;;6.50;99.90;;;;;;5058328;28;20207;-62
2022/09/22 03:27:10;;;;;;;14.97;8.90;;;6.50;99.90;;;;;;5068893;28;20220;-63
2022/09/22 03:29:38;;;;;;;12.60;8.30;;;6.50;99.90;;;;;;5071388;28;20192;-62
2022/09/22 03:32:06;;;;;;;15.30;9.47;;;6.40;99.90;;;;;;5062428;28;20200;-63
2022/09/22 03:34:35;;;;;;;11.23;8.97;;;6.40;99.90;;;;;;5071558;28;20234;-62
2022/09/22 03:37:03;;;;;;;12.83;8.80;;;6.40;99.90;;;;;;5060580;28;20200;-63
2022/09/22 03:39:33;;;;;;;10.53;8.87;;;6.30;99.90;;;;;;5060129;28;20195;-63
2022/09/22 03:42:01;;;;;;;10.13;8.87;;;6.40;99.90;;;;;;5069571;28;20678;-63
2022/09/22 03:44:29;;;;;;;11.07;9.20;;;6.30;99.90;;;;;;5068489;28;20208;-62
2022/09/22 03:46:58;;;;;;;18.00;10.03;;;6.30;99.90;;;;;;5069206;28;20302;-63
2022/09/22 03:49:27;;;;;;;11.73;9.70;;;6.30;99.90;;;;;;5060694;28;20188;-62
2022/09/22 03:51:55;;;;;;;13.67;10.00;;;6.30;99.90;;;;;;5068145;28;20196;-62
2022/09/22 03:54:25;;;;;;;13.60;9.73;;;6.30;99.90;;;;;;5065694;28;20943;-62
2022/09/22 03:56:55;;;;;;;11.60;9.77;;;6.30;99.90;;;;;;5069340;28;20222;-63
2022/09/22 03:59:23;;;;;;;13.93;9.10;;;6.30;99.90;;;;;;5059991;28;20235;-62
2022/09/22 04:01:51;;;;;;;12.90;9.50;;;6.30;99.90;;;;;;5065051;28;20524;-62
2022/09/22 04:04:25;;;;;;;14.10;10.83;;;6.30;99.90;;;;;;5060158;28;20210;-62
2022/09/22 04:06:53;;;;;;;15.57;9.43;;;6.30;99.90;;;;;;5055059;28;20216;-63
2022/09/22 04:09:22;;;;;;;14.70;9.90;;;6.30;99.90;;;;;;5062353;28;20192;-63
2022/09/22 04:11:50;;;;;;;15.13;9.87;;;6.30;99.90;;;;;;5065193;28;20196;-63
2022/09/22 04:14:20;;;;;;;14.20;10.20;;;6.30;99.90;;;;;;5060734;28;20299;-63
2022/09/22 04:16:49;;;;;;;13.27;9.47;;;6.30;99.90;;;;;;5058412;28;20185;-62
2022/09/22 04:19:18;;;;;;;13.43;10.10;;;6.30;99.90;;;;;;5066709;28;20437;-62
2022/09/22 04:21:46;;;;;;;11.97;9.80;;;6.20;99.90;;;;;;5064965;28;20193;-63
2022/09/22 04:24:19;;;;;;;16.40;10.00;;;6.20;99.90;;;;;;5064507;28;20793;-63
2022/09/22 04:26:47;;;;;;;13.63;9.60;;;6.20;99.90;;;;;;5061354;28;20211;-63
2022/09/22 04:29:37;;;;;;;13.27;9.73;;;6.20;99.90;;;;;;5064848;28;20196;-63
2022/09/22 04:32:06;;;;;;;15.07;9.80;;;6.20;99.90;;;;;;5061004;28;20246;-62
2022/09/22 04:34:34;;;;;;;18.63;9.93;;;6.10;99.90;;;;;;5066984;28;20215;-62
2022/09/22 04:37:03;;;;;;;11.00;9.23;;;6.10;99.90;;;;;;5053866;28;20216;-63
2022/09/22 04:39:31;;;;;;;11.97;9.20;;;6.10;99.90;;;;;;5061511;28;20215;-63
2022/09/22 04:42:00;;;;;;;10.93;8.73;;;6.10;99.90;;;;;;5077478;28;20199;-62
2022/09/22 04:44:28;;;;;;;11.73;8.97;;;6.00;99.90;;;;;;5059877;28;20218;-63
2022/09/22 04:47:04;;;;;;;11.73;9.57;;;6.00;99.90;;;;;;5059776;28;20234;-63
2022/09/22 04:49:32;;;;;;;11.23;9.10;;;6.00;99.90;;;;;;5060868;28;20196;-63
2022/09/22 04:52:01;;;;;;;14.00;9.70;;;6.00;99.90;;;;;;5064685;28;20537;-63
2022/09/22 04:54:29;;;;;;;14.10;9.37;;;6.00;99.90;;;;;;5062440;28;20193;-63
2022/09/22 04:56:58;;;;;;;12.87;9.70;;;6.00;99.90;;;;;;5062630;28;20212;-62
2022/09/22 04:59:26;;;;;;;12.80;9.17;;;6.00;99.90;;;;;;5057612;28;20229;-63
2022/09/22 05:01:54;;;;;;;11.80;9.23;;;6.00;99.90;;;;;;5067710;28;20685;-63
2022/09/22 05:04:24;;;;;;;16.10;9.20;;;6.00;99.90;;;;;;5067096;28;20646;-62
2022/09/22 05:06:53;;;;;;;14.53;10.07;;;6.00;99.90;;;;;;5064504;28;20212;-62
2022/09/22 05:09:22;;;;;;;14.53;10.20;;;6.00;99.90;;;;;;5065111;28;20654;-63
2022/09/22 05:11:50;;;;;;;15.97;10.60;;;6.00;99.90;;;;;;5054623;28;20204;-62
2022/09/22 05:14:18;;;;;;;12.73;9.47;;;6.00;99.90;;;;;;5065723;28;20223;-62
2022/09/22 05:16:53;;;;;;;13.43;10.17;;;6.00;99.90;;;;;;5064972;28;20239;-63
2022/09/22 05:19:21;;;;;;;15.43;10.20;;;6.00;99.90;;;;;;5060716;28;20287;-63
2022/09/22 05:21:51;;;;;;;15.40;11.53;;;6.00;99.90;;;;;;5060656;28;21720;-63
2022/09/22 05:24:19;;;;;;;17.93;12.60;;;6.00;99.90;;;;;;5064193;28;20690;-63
2022/09/22 05:26:48;;;;;;;17.20;11.10;;;5.90;99.90;;;;;;5056820;28;20207;-62
2022/09/22 05:29:17;;;;;;;20.13;10.97;;;5.90;99.90;;;;;;5064157;28;20187;-63
2022/09/22 05:31:46;;;;;;;15.57;11.20;;;5.90;99.90;;;;;;5061090;28;20601;-63
2022/09/22 05:34:14;;;;;;;14.40;10.60;;;5.90;99.90;;;;;;5062006;28;20768;-65
2022/09/22 05:36:42;;;;;;;15.17;11.20;;;5.90;99.90;;;;;;5062502;28;20212;-65
2022/09/22 05:39:12;;;;;;;12.30;9.83;;;5.90;99.90;;;;;;5061405;28;20195;-65
2022/09/22 05:41:40;;;;;;;14.13;9.83;;;5.90;99.90;;;;;;5062119;28;20218;-63
2022/09/22 05:44:09;;;;;;;19.37;10.47;;;5.90;99.90;;;;;;5060886;28;20200;-63
2022/09/22 05:46:37;;;;;;;13.80;9.77;;;5.90;99.90;;;;;;5061875;28;20578;-65
2022/09/22 05:49:05;;;;;;;16.90;9.87;;;5.90;99.90;;;;;;5065446;28;20204;-63
2022/09/22 05:51:33;;;;;;;21.50;10.77;;;5.90;99.90;;;;;;5064161;28;20677;-65
2022/09/22 05:54:01;;;;;;;18.70;10.67;;;6.00;99.90;;;;;;5059950;28;20270;-63
2022/09/22 05:56:32;;;;;;;15.47;11.70;;;6.00;99.90;;;;;;5062075;28;20207;-63
2022/09/22 05:59:00;;;;;;;17.97;11.47;;;6.10;99.90;;;;;;5071043;28;20307;-62
2022/09/22 06:01:29;;;;;;;13.30;11.07;;;6.20;99.90;;;;;;5062453;28;20604;-63
2022/09/22 06:03:57;;;;;;;14.77;11.30;;;6.30;99.90;;;;;;5066610;28;20718;-63
2022/09/22 06:06:25;;;;;;;15.47;10.90;;;6.30;99.90;;;;;;5060289;28;20204;-62
2022/09/22 06:08:54;;;;;;;19.97;11.83;;;6.30;99.90;;;;;;5049865;28;20211;-62
2022/09/22 06:11:22;;;;;;;20.30;12.30;;;6.40;99.90;;;;;;5069230;28;20200;-62
2022/09/22 06:13:52;;;;;;;17.93;12.17;;;6.50;99.90;;;;;;5059432;28;20550;-62
2022/09/22 06:16:21;;;;;;;17.97;11.47;;;6.60;99.90;;;;;;5064742;28;20280;-63
2022/09/22 06:18:49;;;;;;;17.80;11.57;;;6.60;99.90;;;;;;5094867;28;20671;-63
2022/09/22 06:21:18;;;;;;;18.20;11.53;;;6.70;99.90;;;;;;5058559;28;20197;-62
2022/09/22 06:23:46;;;;;;;19.20;11.90;;;6.70;99.90;;;;;;5066844;28;20215;-63
2022/09/22 06:26:15;;;;;;;15.97;11.47;;;6.80;99.90;;;;;;5060745;28;20286;-63
2022/09/22 06:28:43;;;;;;;17.13;11.33;;;6.80;99.90;;;;;;5059345;28;20224;-63
2022/09/22 06:31:14;;;;;;;18.87;11.33;;;6.90;99.90;;;;;;5058169;28;20203;-63
2022/09/22 06:33:47;;;;;;;16.87;11.00;;;7.00;99.90;;;;;;5072603;28;20272;-62
2022/09/22 06:36:21;;;;;;;17.97;11.63;;;7.00;99.90;;;;;;5055772;28;20221;-63
2022/09/22 06:38:51;;;;;;;16.17;11.60;;;7.00;99.90;;;;;;5036323;28;20208;-63
2022/09/22 06:41:20;;;;;;;22.63;14.07;;;7.10;99.90;;;;;;5063648;28;20611;-63
2022/09/22 06:43:49;;;;;;;23.80;14.43;;;7.10;99.90;;;;;;5061562;28;20192;-63
2022/09/22 06:46:19;;;;;;;22.83;13.63;;;7.30;99.90;;;;;;5056657;28;20192;-63
2022/09/22 06:48:50;;;;;;;21.60;14.30;;;7.40;99.90;;;;;;5056905;28;20208;-63
2022/09/22 06:51:19;;;;;;;24.67;13.90;;;7.60;99.90;;;;;;5059251;28;20200;-63
2022/09/22 06:53:47;;;;;;;27.13;16.43;;;7.70;99.90;;;;;;5067665;28;20200;-63
2022/09/22 06:56:26;;;;;;;22.80;16.10;;;8.00;99.90;;;;;;5064797;28;20270;-63
2022/09/22 06:58:56;;;;;;;31.13;17.00;;;8.30;99.90;;;;;;5071365;28;20220;-63
2022/09/22 07:01:42;;;;;;;28.53;16.03;;;8.60;99.90;;;;;;5099032;28;20258;-63
2022/09/22 07:04:12;;;;;;;29.00;17.03;;;8.90;99.90;;;;;;5062020;28;20584;-63
2022/09/22 07:06:41;;;;;;;27.43;16.50;;;9.20;99.90;;;;;;5063775;28;20231;-63
2022/09/22 07:09:10;;;;;;;22.90;16.63;;;9.40;99.90;;;;;;5068952;28;20694;-63
2022/09/22 07:11:38;;;;;;;20.80;16.23;;;9.70;99.90;;;;;;5058421;28;20250;-63
2022/09/22 07:14:09;;;;;;;25.50;16.83;;;9.90;99.90;;;;;;5059789;28;20212;-63
2022/09/22 07:16:39;;;;;;;23.73;16.07;;;10.10;99.90;;;;;;5079735;28;20192;-63
2022/09/22 07:19:09;;;;;;;24.17;15.77;;;10.30;99.90;;;;;;5069660;28;20196;-63
2022/09/22 07:21:39;;;;;;;24.37;15.40;;;10.50;99.90;;;;;;5067145;28;20196;-63
2022/09/22 07:24:08;;;;;;;25.20;15.83;;;10.70;99.90;;;;;;5060187;28;20189;-63
2022/09/22 07:26:39;;;;;;;21.43;13.50;;;10.90;99.90;;;;;;5063621;28;20196;-63
2022/09/22 07:29:12;;;;;;;21.63;13.97;;;11.20;99.90;;;;;;5066890;28;20292;-64
2022/09/22 07:31:41;;;;;;;25.17;14.30;;;11.20;99.90;;;;;;5060168;28;20215;-63
2022/09/22 07:34:12;;;;;;;23.20;14.73;;;11.40;99.90;;;;;;5071154;28;20808;-63
2022/09/22 07:36:41;;;;;;;24.13;14.23;;;11.50;99.90;;;;;;5055002;28;21854;-63
2022/09/22 07:39:10;;;;;;;24.93;13.23;;;11.70;99.90;;;;;;5069196;28;20192;-63
2022/09/22 07:41:42;;;;;;;23.43;14.57;;;11.90;99.90;;;;;;5068405;28;20188;-63
2022/09/22 07:46:59;;;;;;;23.87;14.53;;;12.40;99.90;;;;;;5056852;28;20185;-63
2022/09/22 07:49:29;;;;;;;23.83;14.33;;;12.60;99.90;;;;;;5054210;28;20205;-64
2022/09/22 07:51:58;;;;;;;21.93;13.13;;;12.80;99.90;;;;;;5063025;28;20188;-63
2022/09/22 07:54:27;;;;;;;19.37;12.33;;;13.00;99.90;;;;;;5064486;28;20612;-63
2022/09/22 07:56:58;;;;;;;23.83;13.53;;;13.10;99.90;;;;;;5065001;28;20197;-63
2022/09/22 07:59:26;;;;;;;19.33;12.73;;;13.20;99.90;;;;;;5063502;28;20244;-63
2022/09/22 08:01:55;;;;;;;23.03;12.93;;;13.50;99.90;;;;;;5063084;28;20262;-64
2022/09/22 08:04:25;;;;;;;23.53;12.80;;;13.50;99.90;;;;;;5057019;28;20206;-63
2022/09/22 08:06:55;;;;;;;24.10;13.33;;;13.70;99.90;;;;;;5064930;28;20646;-63
2022/09/22 08:09:25;;;;;;;22.70;12.37;;;13.90;99.90;;;;;;5063722;28;20244;-64
2022/09/22 08:11:53;;;;;;;29.30;13.77;;;14.00;99.90;;;;;;5063718;28;20567;-63
2022/09/22 08:14:22;;;;;;;25.97;12.87;;;14.20;99.90;;;;;;5057897;28;20273;-64
2022/09/22 08:16:52;;;;;;;22.57;11.80;;;14.40;99.90;;;;;;5081670;28;20505;-64
2022/09/22 08:19:23;;;;;;;20.77;12.53;;;14.50;99.90;;;;;;5057174;28;20276;-64
2022/09/22 08:21:53;;;;;;;21.07;11.77;;;14.60;99.90;;;;;;5055712;28;20199;-63
2022/09/22 08:24:23;;;;;;;21.40;11.27;;;14.50;99.90;;;;;;5065892;28;20196;-64
2022/09/22 08:26:54;;;;;;;22.57;12.40;;;14.50;99.90;;;;;;5066036;28;20193;-63
2022/09/22 08:29:23;;;;;;;19.93;11.30;;;14.80;99.90;;;;;;5057352;28;20212;-63
2022/09/22 08:31:52;;;;;;;20.43;10.73;;;15.00;99.90;;;;;;5065619;28;20194;-63
2022/09/22 08:34:21;;;;;;;19.13;11.03;;;15.20;99.90;;;;;;5064960;28;20293;-63
2022/09/22 08:36:50;;;;;;;17.57;10.90;;;15.30;99.90;;;;;;5062907;28;20872;-64
2022/09/22 08:39:18;;;;;;;18.97;10.23;;;15.40;99.90;;;;;;5064072;28;20196;-63
2022/09/22 08:42:03;;;;;;;23.80;11.07;;;15.60;99.90;;;;;;5074085;28;20181;-63
2022/09/22 08:44:37;;;;;;;12.90;8.70;;;15.60;99.90;;;;;;5064395;28;20198;-64
2022/09/22 08:47:06;;;;;;;12.50;8.07;;;15.70;99.90;;;;;;5058406;28;20194;-63
2022/09/22 08:52:31;;;;;;;10.33;7.00;;;15.80;99.90;;;;;;5068474;28;20215;-63
2022/09/22 08:55:01;;;;;;;9.47;6.73;;;15.80;99.90;;;;;;5056059;28;20250;-63
2022/09/22 08:57:54;;;;;;;9.10;7.60;;;16.00;99.90;;;;;;5061474;28;20197;-63
2022/09/22 09:00:24;;;;;;;11.47;7.10;;;16.30;99.90;;;;;;5058565;28;20195;-64
2022/09/22 09:03:10;;;;;;;9.23;6.17;;;16.30;99.90;;;;;;5054983;28;20225;-63
2022/09/22 09:06:00;;;;;;;12.20;5.87;;;16.30;99.90;;;;;;5058368;28;20278;-64
2022/09/22 09:09:03;;;;;;;6.00;5.13;;;16.50;99.90;;;;;;5075050;28;20220;-64
2022/09/22 09:11:48;;;;;;;6.53;5.10;;;16.50;99.90;;;;;;5057324;28;20362;-64
2022/09/22 09:14:37;;;;;;;5.73;4.53;;;16.30;99.90;;;;;;5091094;28;20278;-63
2022/09/22 09:17:11;;;;;;;7.40;4.80;;;16.40;99.90;;;;;;5060435;28;20195;-64
2022/09/22 09:19:42;;;;;;;6.43;4.60;;;16.40;99.90;;;;;;5059295;28;20199;-63
2022/09/22 09:22:23;;;;;;;8.83;4.90;;;16.50;99.90;;;;;;5065738;28;20199;-64
2022/09/22 09:25:00;;;;;;;6.10;4.87;;;16.60;99.90;;;;;;5067195;28;20312;-64
2022/09/22 09:27:53;;;;;;;8.20;5.30;;;16.80;99.90;;;;;;5057594;28;20223;-63
2022/09/22 09:30:23;;;;;;;5.37;4.80;;;17.00;99.90;;;;;;5061164;28;20290;-63
2022/09/22 09:32:58;;;;;;;4.60;4.20;;;17.20;99.90;;;;;;5055089;28;20651;-63
2022/09/22 09:35:36;;;;;;;5.80;4.33;;;17.20;99.90;;;;;;5059731;28;20216;-63
2022/09/22 09:38:14;;;;;;;6.13;4.07;;;17.30;99.90;;;;;;5065162;28;20246;-63
2022/09/22 09:40:53;;;;;;;6.07;4.43;;;17.40;99.90;;;;;;5057883;28;20192;-63
2022/09/22 09:43:22;;;;;;;4.73;3.87;;;17.50;99.90;;;;;;5067189;28;20281;-63
2022/09/22 09:46:01;;;;;;;4.40;3.97;;;17.70;99.90;;;;;;5060083;28;20200;-64
2022/09/22 09:48:39;;;;;;;4.13;3.77;;;17.70;99.90;;;;;;5059106;28;20207;-63
2022/09/22 09:51:12;;;;;;;3.93;3.60;;;17.70;99.90;;;;;;5063837;28;20203;-63
2022/09/22 09:53:44;;;;;;;5.10;3.97;;;17.70;99.90;;;;;;5061787;28;20227;-63
2022/09/22 09:56:24;;;;;;;5.23;4.17;;;17.80;99.90;;;;;;5056559;28;20216;-63
2022/09/22 10:01:45;;;;;;;4.10;3.80;;;18.20;99.90;;;;;;5073725;28;20662;-63
2022/09/22 10:04:21;;;;;;;4.30;3.90;;;18.30;99.90;;;;;;5059147;28;20238;-63
2022/09/22 10:06:50;;;;;;;4.30;3.77;;;18.30;99.90;;;;;;5057476;28;20600;-63
2022/09/22 10:09:27;;;;;;;17.57;3.90;;;18.30;99.90;;;;;;5059975;28;20273;-63
2022/09/22 10:12:00;;;;;;;4.37;3.57;;;18.60;99.90;;;;;;5061450;28;20211;-63
2022/09/22 10:14:31;;;;;;;4.60;3.70;;;18.80;99.90;;;;;;5058082;28;20192;-63
2022/09/22 10:17:02;;;;;;;3.90;3.60;;;18.50;99.90;;;;;;5048547;28;20223;-63
2022/09/22 10:19:33;;;;;;;3.73;3.43;;;18.50;99.90;;;;;;5055850;28;20204;-63
2022/09/22 10:22:25;;;;;;;4.37;3.97;;;18.70;99.90;;;;;;5057536;28;20208;-63
2022/09/22 10:24:56;;;;;;;3.93;3.47;;;18.80;99.90;;;;;;5058560;28;20196;-63
2022/09/22 10:27:26;;;;;;;7.90;4.17;;;19.00;99.90;;;;;;5068771;28;20204;-63
2022/09/22 10:30:14;;;;;;;3.43;3.17;;;19.20;99.90;;;;;;5060961;28;20219;-63
2022/09/22 10:33:11;;;;;;;7.17;3.43;;;19.10;99.90;;;;;;5066017;28;20195;-63
2022/09/22 10:35:40;;;;;;;3.30;3.00;;;19.20;99.90;;;;;;5064634;28;20679;-63
2022/09/22 10:38:16;;;;;;;5.23;3.20;;;19.70;99.90;;;;;;5101071;28;20586;-63
2022/09/22 10:40:48;;;;;;;6.03;3.67;;;20.00;99.90;;;;;;5064961;28;20200;-63
2022/09/22 10:43:37;;;;;;;4.63;3.73;;;20.10;99.90;;;;;;5064725;28;20197;-63
2022/09/22 10:46:33;;;;;;;3.00;2.70;;;20.20;99.90;;;;;;5067585;28;20190;-63
2022/09/22 10:49:13;;;;;;;2.93;2.60;;;20.20;99.90;;;;;;5082439;28;20220;-63
2022/09/22 10:52:00;;;;;;;3.63;2.60;;;20.30;99.90;;;;;;5067875;28;20826;-63
2022/09/22 10:54:54;;;;;;;3.50;2.37;;;20.60;99.90;;;;;;5067399;28;20190;-63
2022/09/22 10:57:43;;;;;;;4.07;2.50;;;20.80;99.90;;;;;;5059663;28;20652;-63
2022/09/22 11:00:15;;;;;;;2.60;2.43;;;20.80;99.90;;;;;;5060219;28;20241;-63
2022/09/22 11:03:25;;;;;;;4.07;2.80;;;20.70;99.90;;;;;;5065971;28;20201;-63
2022/09/22 11:12:16;;;;;;;2.07;1.97;;;20.80;99.90;;;;;;5064703;28;20191;-63
2022/09/22 11:15:05;;;;;;;2.50;2.30;;;20.90;99.90;;;;;;5066026;28;20280;-63
2022/09/22 11:17:51;;;;;;;2.20;1.80;;;21.10;99.90;;;;;;5061476;28;20678;-63
2022/09/22 11:20:28;;;;;;;3.93;2.20;;;21.00;99.90;;;;;;5056741;28;20197;-63
2022/09/22 11:23:28;;;;;;;1.80;1.80;;;21.10;99.90;;;;;;5068954;28;20214;-63
2022/09/22 11:26:13;;;;;;;2.20;1.67;;;21.50;99.90;;;;;;5050123;28;20208;-63
2022/09/22 11:28:53;;;;;;;2.77;1.90;;;21.70;99.90;;;;;;5066579;28;20212;-63
2022/09/22 11:31:41;;;;;;;1.63;1.53;;;21.80;99.90;;;;;;5061311;28;20220;-63
2022/09/22 11:34:53;;;;;;;2.20;2.03;;;21.90;99.90;;;;;;5063613;28;20216;-63
2022/09/22 11:37:32;;;;;;;2.33;1.90;;;21.90;99.90;;;;;;5055864;28;20593;-63
2022/09/22 11:40:25;;;;;;;3.67;1.87;;;21.80;99.90;;;;;;5065477;28;20201;-62
2022/09/22 11:43:03;;;;;;;2.17;1.93;;;21.80;99.90;;;;;;5076478;28;20198;-62
2022/09/22 11:45:48;;;;;;;1.70;1.60;;;21.80;99.90;;;;;;5062328;28;20229;-62
2022/09/22 11:48:32;;;;;;;1.90;1.80;;;21.80;99.90;;;;;;5064454;28;20277;-62
2022/09/22 11:51:23;;;;;;;1.70;1.60;;;21.90;99.90;;;;;;5081241;28;20711;-62
2022/09/22 11:54:17;;;;;;;1.93;1.70;;;21.80;99.90;;;;;;5067720;28;20943;-63
2022/09/22 11:56:49;;;;;;;2.67;1.63;;;21.70;99.90;;;;;;5076183;28;20194;-63
2022/09/22 11:59:28;;;;;;;1.90;1.80;;;21.80;99.90;;;;;;5068686;28;20357;-63
2022/09/22 12:02:03;;;;;;;1.57;1.57;;;21.80;99.90;;;;;;5056456;28;20193;-63
2022/09/22 12:04:38;;;;;;;2.07;1.87;;;21.90;99.90;;;;;;5086777;28;20194;-62
2022/09/22 12:07:15;;;;;;;2.50;2.30;;;21.80;99.90;;;;;;5064194;28;20202;-63
2022/09/22 12:09:48;;;;;;;3.23;2.20;;;21.60;99.90;;;;;;5065649;28;20206;-63
2022/09/22 12:12:21;;;;;;;1.67;1.63;;;21.50;99.90;;;;;;5059121;28;20646;-63
2022/09/22 12:14:58;;;;;;;3.10;1.70;;;21.60;99.90;;;;;;5071304;28;20697;-63
2022/09/22 12:17:35;;;;;;;2.33;1.80;;;21.90;99.90;;;;;;5096947;28;20293;-62
2022/09/22 12:20:20;;;;;;;2.67;1.60;;;21.80;99.90;;;;;;5063382;28;20211;-62
2022/09/22 12:23:19;;;;;;;2.40;1.83;;;22.00;99.90;;;;;;5065540;28;20936;-62
2022/09/22 12:25:50;;;;;;;2.07;1.87;;;21.90;99.90;;;;;;5059275;28;20214;-62
2022/09/22 12:28:25;;;;;;;3.07;1.87;;;21.80;99.90;;;;;;5065248;28;20193;-62
2022/09/22 12:31:11;;;;;;;3.10;1.90;;;21.80;99.90;;;;;;5064408;28;20266;-62
2022/09/22 12:33:47;;;;;;;2.60;1.67;;;21.70;99.90;;;;;;5067867;28;20227;-62
2022/09/22 12:36:17;;;;;;;1.60;1.50;;;21.80;99.90;;;;;;5063598;28;20216;-62
2022/09/22 12:38:46;;;;;;;2.00;1.83;;;21.80;99.90;;;;;;5067191;28;20188;-62
2022/09/22 12:41:18;;;;;;;2.10;2.00;;;22.00;99.90;;;;;;5067431;28;20199;-62
2022/09/22 12:43:48;;;;;;;4.70;2.20;;;21.90;99.90;;;;;;5070580;28;20652;-62
2022/09/22 12:46:24;;;;;;;2.43;2.00;;;21.90;99.90;;;;;;5056711;28;20255;-62
2022/09/22 12:48:53;;;;;;;3.97;2.37;;;21.80;99.90;;;;;;5071306;28;20208;-62
2022/09/22 12:51:32;;;;;;;2.70;2.27;;;21.80;99.90;;;;;;5065386;28;20201;-62
2022/09/22 12:54:51;;;;;;;5.10;2.30;;;21.70;99.90;;;;;;5063525;28;20202;-62
2022/09/22 12:58:01;;;;;;;2.10;2.00;;;21.60;99.90;;;;;;5068585;28;20210;-62
2022/09/22 13:00:36;;;;;;;2.23;2.13;;;21.60;99.90;;;;;;5071655;28;20199;-62
2022/09/22 13:03:38;;;;;;;2.70;2.50;;;21.60;99.90;;;;;;5062605;28;20204;-62
2022/09/22 13:06:53;;;;;;;2.53;2.20;;;21.40;99.90;;;;;;5068367;28;20187;-62
2022/09/22 13:09:25;;;;;;;3.10;2.80;;;21.60;99.90;;;;;;5065292;28;20202;-62
2022/09/22 13:12:27;;;;;;;4.37;2.40;;;21.60;99.90;;;;;;5069175;28;20225;-62
2022/09/22 13:15:22;;;;;;;2.23;2.07;;;21.70;99.90;;;;;;5067190;28;20205;-62
2022/09/22 13:17:53;;;;;;;3.13;2.20;;;21.60;99.90;;;;;;5072558;28;20203;-63
2022/09/22 13:20:25;;;;;;;2.90;2.70;;;21.70;99.90;;;;;;5062791;28;20204;-62
2022/09/22 13:22:54;;;;;;;3.63;2.80;;;21.60;99.90;;;;;;5066960;28;20202;-62
2022/09/22 13:25:25;;;;;;;3.83;2.73;;;21.50;99.90;;;;;;5066699;28;20192;-62
2022/09/22 13:28:14;;;;;;;3.87;3.03;;;21.30;99.90;;;;;;5062320;28;20201;-62
2022/09/22 13:30:44;;;;;;;4.37;3.30;;;21.10;99.90;;;;;;5065529;28;20271;-62
2022/09/22 13:33:22;;;;;;;3.83;3.20;;;21.20;99.90;;;;;;5060640;28;20204;-62
2022/09/22 13:35:55;;;;;;;3.73;3.37;;;21.50;99.90;;;;;;5058597;28;20631;-61